createdAt,value
2022-08-24T00:02:04.970Z,19.84
2022-08-24T00:04:32.447Z,19.76
2022-08-24T00:07:00.566Z,19.75
2022-08-24T00:09:27.154Z,19.70
2022-08-24T00:11:53.779Z,19.72
2022-08-24T00:14:20.351Z,19.71
2022-08-24T00:16:47.233Z,19.69
2022-08-24T00:19:14.172Z,19.58
2022-08-24T00:21:40.708Z,19.70
2022-08-24T00:24:07.298Z,19.71
2022-08-24T00:26:35.351Z,19.63
2022-08-24T00:29:05.522Z,19.51
2022-08-24T00:31:34.328Z,19.62
2022-08-24T00:34:00.952Z,19.58
2022-08-24T00:36:27.545Z,19.53
2022-08-24T00:38:54.355Z,19.51
2022-08-24T00:41:21.451Z,19.60
2022-08-24T00:43:58.416Z,19.45
2022-08-24T00:46:36.376Z,19.58
2022-08-24T00:49:08.024Z,19.49
2022-08-24T00:51:43.563Z,19.49
2022-08-24T00:54:13.932Z,19.35
2022-08-24T00:56:49.504Z,19.41
2022-08-24T00:59:24.133Z,19.37
2022-08-24T01:01:52.295Z,19.33
2022-08-24T01:04:29.177Z,19.37
2022-08-24T01:06:57.807Z,19.25
2022-08-24T01:09:24.438Z,19.06
2022-08-24T01:11:51.577Z,19.03
2022-08-24T01:14:20.740Z,19.02
2022-08-24T01:17:05.959Z,19.11
2022-08-24T01:19:44.924Z,19.07
2022-08-24T01:22:20.899Z,19.01
2022-08-24T01:24:48.077Z,18.99
2022-08-24T01:27:15.580Z,18.93
2022-08-24T01:29:45.845Z,18.92
2022-08-24T01:32:13.848Z,19.02
2022-08-24T01:34:40.483Z,19.02
2022-08-24T01:37:11.028Z,19.02
2022-08-24T01:39:42.545Z,18.91
2022-08-24T01:42:10.048Z,18.92
2022-08-24T01:44:39.556Z,19.01
2022-08-24T01:47:07.891Z,18.95
2022-08-24T01:49:38.035Z,18.73
2022-08-24T01:52:06.806Z,18.61
2022-08-24T01:54:34.341Z,18.71
2022-08-24T01:57:02.355Z,18.62
2022-08-24T01:59:29.192Z,18.70
2022-08-24T02:02:03.356Z,18.80
2022-08-24T02:04:30.093Z,18.69
2022-08-24T02:06:56.672Z,18.78
2022-08-24T02:09:23.216Z,18.57
2022-08-24T02:11:55.183Z,18.60
2022-08-24T02:14:22.271Z,18.52
2022-08-24T02:16:49.154Z,18.56
2022-08-24T02:19:15.788Z,18.57
2022-08-24T02:21:42.374Z,18.42
2022-08-24T02:24:08.943Z,18.34
2022-08-24T02:26:35.528Z,18.33
2022-08-24T02:29:03.593Z,18.34
2022-08-24T02:31:30.701Z,18.43
2022-08-24T02:33:57.397Z,18.19
2022-08-24T02:36:26.159Z,18.17
2022-08-24T02:38:54.523Z,18.14
2022-08-24T02:41:22.390Z,18.12
2022-08-24T02:43:49.733Z,18.03
2022-08-24T02:46:21.833Z,18.08
2022-08-24T02:48:56.521Z,18.07
2022-08-24T02:51:41.587Z,17.98
2022-08-24T02:54:12.273Z,17.99
2022-08-24T02:56:38.778Z,18.04
2022-08-24T02:59:05.463Z,17.93
2022-08-24T03:01:32.049Z,17.98
2022-08-24T03:03:58.976Z,17.95
2022-08-24T03:06:25.532Z,17.88
2022-08-24T03:08:56.259Z,17.86
2022-08-24T03:11:27.729Z,17.73
2022-08-24T03:13:57.564Z,17.78
2022-08-24T03:16:24.097Z,17.86
2022-08-24T03:18:51.518Z,17.76
2022-08-24T03:21:18.203Z,17.68
2022-08-24T03:23:44.817Z,17.61
2022-08-24T03:26:12.235Z,17.54
2022-08-24T03:28:39.031Z,17.46
2022-08-24T03:31:06.551Z,17.55
2022-08-24T03:33:33.631Z,17.52
2022-08-24T03:36:00.343Z,17.48
2022-08-24T03:38:27.475Z,17.51
2022-08-24T03:40:54.440Z,17.53
2022-08-24T03:43:39.538Z,17.64
2022-08-24T03:46:09.023Z,17.50
2022-08-24T03:48:36.303Z,17.50
2022-08-24T03:51:03.430Z,17.43
2022-08-24T03:53:29.988Z,17.32
2022-08-24T03:55:56.567Z,17.40
2022-08-24T03:58:23.085Z,17.46
2022-08-24T04:00:50.098Z,17.39
2022-08-24T04:03:16.725Z,17.40
2022-08-24T04:05:43.367Z,17.49
2022-08-24T04:08:10.888Z,17.42
2022-08-24T04:10:38.271Z,17.29
2022-08-24T04:13:06.831Z,17.30
2022-08-24T04:15:33.432Z,17.34
2022-08-24T04:18:02.183Z,17.32
2022-08-24T04:20:28.819Z,17.35
2022-08-24T04:22:55.323Z,17.32
2022-08-24T04:25:25.059Z,17.31
2022-08-24T04:27:52.323Z,17.36
2022-08-24T04:30:20.583Z,17.29
2022-08-24T04:32:47.117Z,17.33
2022-08-24T04:35:13.948Z,17.41
2022-08-24T04:37:40.968Z,17.25
2022-08-24T04:40:09.009Z,17.30
2022-08-24T04:42:37.383Z,17.40
2022-08-24T04:45:04.530Z,17.39
2022-08-24T04:47:31.108Z,17.31
2022-08-24T04:49:57.742Z,17.42
2022-08-24T04:52:24.273Z,17.26
2022-08-24T04:54:50.847Z,17.34
2022-08-24T04:57:18.488Z,17.42
2022-08-24T04:59:45.694Z,17.42
2022-08-24T05:02:12.658Z,17.34
2022-08-24T05:04:39.363Z,17.36
2022-08-24T05:07:06.399Z,17.33
2022-08-24T05:09:33.030Z,17.47
2022-08-24T05:12:00.146Z,17.40
2022-08-24T05:14:29.011Z,17.52
2022-08-24T05:16:56.178Z,17.46
2022-08-24T05:19:23.774Z,17.52
2022-08-24T05:21:50.744Z,17.44
2022-08-24T05:24:18.304Z,17.59
2022-08-24T05:26:45.537Z,17.64
2022-08-24T05:29:12.531Z,17.56
2022-08-24T05:31:43.198Z,17.62
2022-08-24T05:34:09.864Z,17.70
2022-08-24T05:36:38.445Z,17.72
2022-08-24T05:39:11.383Z,17.78
2022-08-24T05:41:43.964Z,17.76
2022-08-24T05:44:12.714Z,17.81
2022-08-24T05:46:39.322Z,17.94
2022-08-24T05:49:06.380Z,17.84
2022-08-24T05:51:33.125Z,18.02
2022-08-24T05:54:00.754Z,17.97
2022-08-24T05:56:31.400Z,18.01
2022-08-24T05:58:58.698Z,18.15
2022-08-24T06:01:26.703Z,18.23
2022-08-24T06:03:55.027Z,18.24
2022-08-24T06:06:23.545Z,18.27
2022-08-24T06:08:53.689Z,18.30
2022-08-24T06:11:29.866Z,18.37
2022-08-24T06:14:00.622Z,18.49
2022-08-24T06:16:27.377Z,18.56
2022-08-24T06:18:54.212Z,18.65
2022-08-24T06:21:28.420Z,18.84
2022-08-24T06:23:56.887Z,18.97
2022-08-24T06:26:42.115Z,19.02
2022-08-24T06:29:09.308Z,19.16
2022-08-24T06:31:41.812Z,19.26
2022-08-24T06:34:10.176Z,19.52
2022-08-24T06:36:37.182Z,19.57
2022-08-24T06:39:06.944Z,19.67
2022-08-24T06:41:36.764Z,19.81
2022-08-24T06:44:03.871Z,19.96
2022-08-24T06:46:32.849Z,20.10
2022-08-24T06:48:59.748Z,20.27
2022-08-24T06:51:26.328Z,20.35
2022-08-24T06:53:56.130Z,20.53
2022-08-24T06:56:23.164Z,20.65
2022-08-24T06:58:50.306Z,20.66
2022-08-24T07:01:20.483Z,20.81
2022-08-24T07:03:47.384Z,20.78
2022-08-24T07:06:15.556Z,20.95
2022-08-24T07:08:43.194Z,21.10
2022-08-24T07:11:11.189Z,21.26
2022-08-24T07:13:37.894Z,21.25
2022-08-24T07:16:05.169Z,21.33
2022-08-24T07:18:32.362Z,21.52
2022-08-24T07:21:05.091Z,21.72
2022-08-24T07:23:42.168Z,21.76
2022-08-24T07:26:20.969Z,21.89
2022-08-24T07:28:49.836Z,21.95
2022-08-24T07:31:16.544Z,22.05
2022-08-24T07:33:43.171Z,22.13
2022-08-24T07:36:09.889Z,21.98
2022-08-24T07:38:39.312Z,22.08
2022-08-24T07:41:33.727Z,22.38
2022-08-24T07:43:52.872Z,22.35
2022-08-24T07:46:19.522Z,22.39
2022-08-24T07:48:46.668Z,22.54
2022-08-24T07:51:16.115Z,22.70
2022-08-24T07:53:53.687Z,22.84
2022-08-24T07:56:20.660Z,22.84
2022-08-24T07:58:48.347Z,23.01
2022-08-24T08:01:15.558Z,23.15
2022-08-24T08:03:42.106Z,23.12
2022-08-24T08:06:16.108Z,22.94
2022-08-24T08:08:43.184Z,23.18
2022-08-24T08:11:10.538Z,23.38
2022-08-24T08:13:37.737Z,23.53
2022-08-24T08:16:08.406Z,23.58
2022-08-24T08:18:36.145Z,23.67
2022-08-24T08:21:26.431Z,23.72
2022-08-24T08:24:11.699Z,23.85
2022-08-24T08:26:39.089Z,23.90
2022-08-24T08:29:06.137Z,24.10
2022-08-24T08:31:34.272Z,24.23
2022-08-24T08:34:01.677Z,24.43
2022-08-24T08:36:28.410Z,24.41
2022-08-24T08:38:55.178Z,24.49
2022-08-24T08:41:56.350Z,24.50
2022-08-24T08:44:52.442Z,24.60
2022-08-24T08:47:46.614Z,24.57
2022-08-24T08:50:21.930Z,24.59
2022-08-24T08:53:13.842Z,24.62
2022-08-24T08:55:48.485Z,24.82
2022-08-24T08:58:59.565Z,24.94
2022-08-24T09:01:34.996Z,24.91
2022-08-24T09:04:44.736Z,24.89
2022-08-24T09:07:55.373Z,25.07
2022-08-24T09:10:40.766Z,25.06
2022-08-24T09:13:30.321Z,24.96
2022-08-24T09:16:13.149Z,25.04
2022-08-24T09:19:07.144Z,25.06
2022-08-24T09:22:08.411Z,25.25
2022-08-24T09:24:50.414Z,25.28
2022-08-24T09:27:54.664Z,25.51
2022-08-24T09:30:23.809Z,25.43
2022-08-24T09:33:06.723Z,25.38
2022-08-24T09:35:50.073Z,25.56
2022-08-24T09:38:47.592Z,25.63
2022-08-24T09:41:51.204Z,25.77
2022-08-24T09:44:39.512Z,25.72
2022-08-24T09:47:35.507Z,25.68
2022-08-24T09:50:20.803Z,25.87
2022-08-24T09:53:11.063Z,25.94
2022-08-24T09:56:27.952Z,26.03
2022-08-24T09:58:57.859Z,26.01
2022-08-24T10:01:39.408Z,26.03
2022-08-24T10:04:25.405Z,26.16
2022-08-24T10:07:13.913Z,26.24
2022-08-24T10:09:50.233Z,26.08
2022-08-24T10:12:33.919Z,26.35
2022-08-24T10:15:14.853Z,26.41
2022-08-24T10:18:04.490Z,26.36
2022-08-24T10:21:04.436Z,26.41
2022-08-24T10:23:56.496Z,26.40
2022-08-24T10:26:29.160Z,26.55
2022-08-24T10:29:26.755Z,26.65
2022-08-24T10:31:59.899Z,26.72
2022-08-24T10:35:02.309Z,26.84
2022-08-24T10:37:47.591Z,26.89
2022-08-24T10:40:23.207Z,26.87
2022-08-24T10:43:29.583Z,27.01
2022-08-24T10:46:05.411Z,27.00
2022-08-24T10:48:33.459Z,26.96
2022-08-24T10:51:10.359Z,27.10
2022-08-24T10:53:37.195Z,27.12
2022-08-24T10:56:11.972Z,27.06
2022-08-24T10:58:43.745Z,27.02
2022-08-24T11:01:19.840Z,27.12
2022-08-24T11:04:00.816Z,27.17
2022-08-24T11:06:40.221Z,27.32
2022-08-24T11:09:19.916Z,27.34
2022-08-24T11:11:49.370Z,27.32
2022-08-24T11:14:15.852Z,27.38
2022-08-24T11:16:45.815Z,27.33
2022-08-24T11:19:32.611Z,27.31
2022-08-24T11:22:05.589Z,27.30
2022-08-24T11:24:44.036Z,27.37
2022-08-24T11:27:16.280Z,27.35
2022-08-24T11:29:52.165Z,27.37
2022-08-24T11:32:43.180Z,27.46
2022-08-24T11:35:23.785Z,27.29
2022-08-24T11:37:52.839Z,27.24
2022-08-24T11:40:24.936Z,27.19
2022-08-24T11:43:19.580Z,27.34
2022-08-24T11:46:18.639Z,27.40
2022-08-24T11:49:02.975Z,27.48
2022-08-24T11:51:55.885Z,27.47
2022-08-24T11:54:34.108Z,27.45
2022-08-24T11:57:09.446Z,27.47
2022-08-24T12:00:15.294Z,27.61
2022-08-24T12:03:00.793Z,27.71
2022-08-24T12:06:18.166Z,27.77
2022-08-24T12:08:53.516Z,27.88
2022-08-24T12:11:37.613Z,27.80
2022-08-24T12:14:14.257Z,27.73
2022-08-24T12:16:57.829Z,27.79
2022-08-24T12:19:30.134Z,27.83
2022-08-24T12:22:04.927Z,27.96
2022-08-24T12:24:41.163Z,27.87
2022-08-24T12:27:18.112Z,27.97
2022-08-24T12:29:52.258Z,27.56
2022-08-24T12:32:27.135Z,27.81
2022-08-24T12:35:01.389Z,27.92
2022-08-24T12:37:36.185Z,28.00
2022-08-24T12:40:08.792Z,27.86
2022-08-24T12:42:51.323Z,27.84
2022-08-24T12:45:20.981Z,27.94
2022-08-24T12:48:04.218Z,27.89
2022-08-24T12:50:42.942Z,27.98
2022-08-24T12:53:17.772Z,28.00
2022-08-24T12:55:56.141Z,28.07
2022-08-24T12:58:35.967Z,28.02
2022-08-24T13:01:11.663Z,28.12
2022-08-24T13:03:41.622Z,28.23
2022-08-24T13:06:17.395Z,28.21
2022-08-24T13:08:47.111Z,28.25
2022-08-24T13:11:34.352Z,28.10
2022-08-24T13:14:03.934Z,27.92
2022-08-24T13:16:56.391Z,28.02
2022-08-24T13:19:22.873Z,28.09
2022-08-24T13:22:16.104Z,28.13
2022-08-24T13:24:43.999Z,28.14
2022-08-24T13:27:13.320Z,28.14
2022-08-24T13:30:01.912Z,28.26
2022-08-24T13:32:38.412Z,28.40
2022-08-24T13:35:31.613Z,28.47
2022-08-24T13:38:23.401Z,28.44
2022-08-24T13:40:56.893Z,28.43
2022-08-24T13:43:33.770Z,28.45
2022-08-24T13:46:19.050Z,28.55
2022-08-24T13:49:12.407Z,28.58
2022-08-24T13:51:50.083Z,28.54
2022-08-24T13:54:50.121Z,28.52
2022-08-24T13:57:27.279Z,28.51
2022-08-24T14:00:12.845Z,28.58
2022-08-24T14:02:58.270Z,28.50
2022-08-24T14:05:38.537Z,28.28
2022-08-24T14:08:24.141Z,28.34
2022-08-24T14:11:12.081Z,28.43
2022-08-24T14:14:04.327Z,28.36
2022-08-24T14:17:20.177Z,28.35
2022-08-24T14:20:22.276Z,28.57
2022-08-24T14:23:24.140Z,28.53
2022-08-24T14:25:51.762Z,28.55
2022-08-24T14:28:21.272Z,28.55
2022-08-24T14:30:50.258Z,28.40
2022-08-24T14:33:31.399Z,28.21
2022-08-24T14:36:18.650Z,28.09
2022-08-24T14:39:04.052Z,28.30
2022-08-24T14:42:07.411Z,28.20
2022-08-24T14:44:53.135Z,28.24
2022-08-24T14:47:25.347Z,28.22
2022-08-24T14:50:09.207Z,28.24
2022-08-24T14:52:57.209Z,28.36
2022-08-24T14:55:52.947Z,28.27
2022-08-24T14:58:39.318Z,28.39
2022-08-24T15:01:14.936Z,28.36
2022-08-24T15:03:50.279Z,28.25
2022-08-24T15:06:47.873Z,28.28
2022-08-24T15:09:35.425Z,28.18
2022-08-24T15:12:20.427Z,28.22
2022-08-24T15:14:53.422Z,28.31
2022-08-24T15:17:31.628Z,28.34
2022-08-24T15:20:15.574Z,28.24
2022-08-24T15:23:07.345Z,28.24
2022-08-24T15:25:48.436Z,28.27
2022-08-24T15:28:27.900Z,28.25
2022-08-24T15:31:01.121Z,28.26
2022-08-24T15:33:30.135Z,28.16
2022-08-24T15:36:10.903Z,28.02
2022-08-24T15:38:40.256Z,27.96
2022-08-24T15:41:20.758Z,27.92
2022-08-24T15:43:57.063Z,27.88
2022-08-24T15:46:32.602Z,27.65
2022-08-24T15:49:08.429Z,27.75
2022-08-24T15:51:54.971Z,27.62
2022-08-24T15:54:25.421Z,27.61
2022-08-24T15:56:59.390Z,27.57
2022-08-24T15:59:41.084Z,27.60
2022-08-24T16:02:29.791Z,27.61
2022-08-24T16:05:15.923Z,27.64
2022-08-24T16:08:01.716Z,27.54
2022-08-24T16:10:43.492Z,27.52
2022-08-24T16:13:19.565Z,27.59
2022-08-24T16:16:13.165Z,27.62
2022-08-24T16:18:53.803Z,27.51
2022-08-24T16:21:37.840Z,27.53
2022-08-24T16:24:23.262Z,27.45
2022-08-24T16:26:58.664Z,27.34
2022-08-24T16:29:37.560Z,27.20
2022-08-24T16:32:21.614Z,27.18
2022-08-24T16:35:09.199Z,27.20
2022-08-24T16:37:36.308Z,27.15
2022-08-24T16:40:04.570Z,27.08
2022-08-24T16:42:31.747Z,27.02
2022-08-24T16:44:59.259Z,27.04
2022-08-24T16:47:27.562Z,26.92
2022-08-24T16:49:54.594Z,26.94
2022-08-24T16:52:21.576Z,26.75
2022-08-24T16:54:54.465Z,26.82
2022-08-24T16:57:28.083Z,26.81
2022-08-24T16:59:55.027Z,26.75
2022-08-24T17:02:23.107Z,26.66
2022-08-24T17:04:50.084Z,26.62
2022-08-24T17:07:25.542Z,26.60
2022-08-24T17:09:52.415Z,26.54
2022-08-24T17:12:19.345Z,26.45
2022-08-24T17:14:46.366Z,26.36
2022-08-24T17:17:16.900Z,26.34
2022-08-24T17:19:47.828Z,26.28
2022-08-24T17:22:16.505Z,26.20
2022-08-24T17:24:43.936Z,26.19
2022-08-24T17:27:12.171Z,26.17
2022-08-24T17:29:39.176Z,26.22
2022-08-24T17:32:06.177Z,26.02
2022-08-24T17:34:32.805Z,25.92
2022-08-24T17:37:00.160Z,25.85
2022-08-24T17:39:26.803Z,25.80
2022-08-24T17:41:54.901Z,25.84
2022-08-24T17:44:25.808Z,25.76
2022-08-24T17:46:55.475Z,25.65
2022-08-24T17:49:22.400Z,25.56
2022-08-24T17:51:49.757Z,25.49
2022-08-24T17:54:17.950Z,25.28
2022-08-24T17:56:46.611Z,25.29
2022-08-24T17:59:20.853Z,25.14
2022-08-24T18:01:50.220Z,25.18
2022-08-24T18:04:17.517Z,25.06
2022-08-24T18:06:44.171Z,25.05
2022-08-24T18:09:17.445Z,25.04
2022-08-24T18:11:44.059Z,24.96
2022-08-24T18:14:10.647Z,24.76
2022-08-24T18:16:37.301Z,24.76
2022-08-24T18:19:04.437Z,24.68
2022-08-24T18:21:31.113Z,24.49
2022-08-24T18:23:58.340Z,24.59
2022-08-24T18:26:29.207Z,24.39
2022-08-24T18:29:03.753Z,24.36
2022-08-24T18:31:31.664Z,24.37
2022-08-24T18:33:58.333Z,24.31
2022-08-24T18:36:24.958Z,24.19
2022-08-24T18:38:52.641Z,24.01
2022-08-24T18:41:21.633Z,23.87
2022-08-24T18:43:49.110Z,23.83
2022-08-24T18:46:16.634Z,23.67
2022-08-24T18:48:43.885Z,23.76
2022-08-24T18:51:15.006Z,23.54
2022-08-24T18:53:42.256Z,23.51
2022-08-24T18:56:12.546Z,23.41
2022-08-24T18:58:40.273Z,23.19
2022-08-24T19:01:08.030Z,23.11
2022-08-24T19:03:35.680Z,23.05
2022-08-24T19:06:03.275Z,22.95
2022-08-24T19:08:30.416Z,22.99
2022-08-24T19:10:57.631Z,22.93
2022-08-24T19:13:24.803Z,22.81
2022-08-24T19:15:52.515Z,22.64
2022-08-24T19:18:21.816Z,22.67
2022-08-24T19:20:52.789Z,22.77
2022-08-24T19:23:32.930Z,22.69
2022-08-24T19:26:01.748Z,22.64
2022-08-24T19:28:29.184Z,22.71
2022-08-24T19:31:02.877Z,22.36
2022-08-24T19:33:35.866Z,22.39
2022-08-24T19:36:02.826Z,22.32
2022-08-24T19:38:29.574Z,22.30
2022-08-24T19:40:57.818Z,22.22
2022-08-24T19:43:29.391Z,22.31
2022-08-24T19:46:05.478Z,22.17
2022-08-24T19:48:34.583Z,22.03
2022-08-24T19:51:03.890Z,21.79
2022-08-24T19:53:33.791Z,21.91
2022-08-24T19:56:00.816Z,21.94
2022-08-24T19:58:27.308Z,21.96
2022-08-24T20:01:02.316Z,21.99
2022-08-24T20:03:28.954Z,21.72
2022-08-24T20:05:56.356Z,21.61
2022-08-24T20:08:22.969Z,21.74
2022-08-24T20:10:49.845Z,21.59
2022-08-24T20:13:16.518Z,21.43
2022-08-24T20:15:43.729Z,21.59
2022-08-24T20:18:10.700Z,21.60
2022-08-24T20:20:37.746Z,21.56
2022-08-24T20:23:06.421Z,21.41
2022-08-24T20:25:37.370Z,21.49
2022-08-24T20:28:28.370Z,21.40
2022-08-24T20:30:53.071Z,21.27
2022-08-24T20:33:23.797Z,21.24
2022-08-24T20:35:51.004Z,21.39
2022-08-24T20:38:20.021Z,21.24
2022-08-24T20:40:47.636Z,21.11
2022-08-24T20:43:14.675Z,21.18
2022-08-24T20:45:41.735Z,21.19
2022-08-24T20:48:12.117Z,21.26
2022-08-24T20:50:39.490Z,21.24
2022-08-24T20:53:06.333Z,21.11
2022-08-24T20:55:33.040Z,20.88
2022-08-24T20:58:03.051Z,20.97
2022-08-24T21:00:30.670Z,20.94
2022-08-24T21:02:58.191Z,20.93
2022-08-24T21:05:25.184Z,20.97
2022-08-24T21:07:52.162Z,20.86
2022-08-24T21:10:26.780Z,20.62
2022-08-24T21:12:54.223Z,20.69
2022-08-24T21:15:22.465Z,20.68
2022-08-24T21:17:49.417Z,20.54
2022-08-24T21:20:16.529Z,20.58
2022-08-24T21:22:43.146Z,20.60
2022-08-24T21:25:10.041Z,20.52
2022-08-24T21:27:39.112Z,20.43
2022-08-24T21:30:08.378Z,20.49
2022-08-24T21:32:53.521Z,20.44
2022-08-24T21:35:20.179Z,20.36
2022-08-24T21:37:46.776Z,20.34
2022-08-24T21:40:14.100Z,20.26
2022-08-24T21:42:40.702Z,20.21
2022-08-24T21:45:07.940Z,20.26
2022-08-24T21:47:34.810Z,20.13
2022-08-24T21:50:01.442Z,19.92
2022-08-24T21:52:27.989Z,20.14
2022-08-24T21:54:55.119Z,20.17
2022-08-24T21:57:22.210Z,20.15
2022-08-24T21:59:49.223Z,20.17
2022-08-24T22:02:16.932Z,19.95
2022-08-24T22:04:56.126Z,19.92
2022-08-24T22:07:25.247Z,19.99
2022-08-24T22:09:51.870Z,19.84
2022-08-24T22:12:18.810Z,20.03
2022-08-24T22:14:45.350Z,19.76
2022-08-24T22:17:12.095Z,19.67
2022-08-24T22:19:39.228Z,19.88
2022-08-24T22:22:05.895Z,19.72
2022-08-24T22:24:32.753Z,19.83
2022-08-24T22:26:59.577Z,19.77
2022-08-24T22:29:26.289Z,19.79
2022-08-24T22:31:52.982Z,19.68
2022-08-24T22:34:21.282Z,19.67
2022-08-24T22:36:49.035Z,19.84
2022-08-24T22:39:15.785Z,19.81
2022-08-24T22:41:42.540Z,19.75
2022-08-24T22:44:21.613Z,19.62
2022-08-24T22:46:59.812Z,19.47
2022-08-24T22:49:29.719Z,19.46
2022-08-24T22:51:57.271Z,19.42
2022-08-24T22:54:25.472Z,19.43
2022-08-24T22:56:54.302Z,19.49
2022-08-24T22:59:29.515Z,19.53
2022-08-24T23:01:57.565Z,19.48
2022-08-24T23:04:31.280Z,19.40
2022-08-24T23:06:58.775Z,19.47
2022-08-24T23:09:25.465Z,19.47
2022-08-24T23:11:52.423Z,19.58
2022-08-24T23:14:19.753Z,19.38
2022-08-24T23:16:50.369Z,19.36
2022-08-24T23:19:38.379Z,19.29
2022-08-24T23:22:06.287Z,19.38
2022-08-24T23:24:33.584Z,19.40
2022-08-24T23:27:01.808Z,19.26
2022-08-24T23:29:28.332Z,19.36
2022-08-24T23:31:54.902Z,19.26
2022-08-24T23:34:22.242Z,19.31
2022-08-24T23:36:50.090Z,19.31
2022-08-24T23:39:17.200Z,19.25
2022-08-24T23:41:46.282Z,19.29
2022-08-24T23:44:19.538Z,19.34
2022-08-24T23:46:46.725Z,19.23
2022-08-24T23:49:15.663Z,19.12
2022-08-24T23:51:42.621Z,19.10
2022-08-24T23:54:10.900Z,19.10
2022-08-24T23:56:40.915Z,19.11
2022-08-24T23:59:16.727Z,19.04
